sensor_id;sensor_type;location;lat;lon;timestamp;P1;durP1;ratioP1;P2;durP2;ratioP2
20931;SDS011;10625;49.054;9.348;2022-07-06T00:00:45;5.67;;;4.97;;
20931;SDS011;10625;49.054;9.348;2022-07-06T00:03:13;5.40;;;4.90;;
20931;SDS011;10625;49.054;9.348;2022-07-06T00:05:40;7.27;;;4.60;;
20931;SDS011;10625;49.054;9.348;2022-07-06T00:08:07;5.03;;;4.53;;
20931;SDS011;10625;49.054;9.348;2022-07-06T00:10:34;5.63;;;5.07;;
20931;SDS011;10625;49.054;9.348;2022-07-06T00:13:02;4.97;;;4.50;;
20931;SDS011;10625;49.054;9.348;2022-07-06T00:15:29;5.60;;;5.07;;
20931;SDS011;10625;49.054;9.348;2022-07-06T00:17:56;5.27;;;4.77;;
20931;SDS011;10625;49.054;9.348;2022-07-06T00:20:23;5.33;;;4.83;;
20931;SDS011;10625;49.054;9.348;2022-07-06T00:22:51;7.93;;;5.60;;
20931;SDS011;10625;49.054;9.348;2022-07-06T00:25:18;5.43;;;4.93;;
20931;SDS011;10625;49.054;9.348;2022-07-06T00:27:45;5.37;;;4.97;;
20931;SDS011;10625;49.054;9.348;2022-07-06T00:30:12;5.60;;;5.10;;
20931;SDS011;10625;49.054;9.348;2022-07-06T00:32:40;6.80;;;5.40;;
20931;SDS011;10625;49.054;9.348;2022-07-06T00:35:07;7.63;;;5.40;;
20931;SDS011;10625;49.054;9.348;2022-07-06T00:37:34;6.57;;;5.87;;
20931;SDS011;10625;49.054;9.348;2022-07-06T00:40:02;6.07;;;4.93;;
20931;SDS011;10625;49.054;9.348;2022-07-06T00:42:29;6.27;;;5.67;;
20931;SDS011;10625;49.054;9.348;2022-07-06T00:44:56;6.33;;;5.73;;
20931;SDS011;10625;49.054;9.348;2022-07-06T00:47:23;5.87;;;5.37;;
20931;SDS011;10625;49.054;9.348;2022-07-06T00:49:51;7.00;;;5.50;;
20931;SDS011;10625;49.054;9.348;2022-07-06T00:52:36;5.90;;;5.30;;
20931;SDS011;10625;49.054;9.348;2022-07-06T00:55:03;6.60;;;6.03;;
20931;SDS011;10625;49.054;9.348;2022-07-06T00:57:31;6.77;;;5.63;;
20931;SDS011;10625;49.054;9.348;2022-07-06T00:59:58;6.20;;;5.67;;
20931;SDS011;10625;49.054;9.348;2022-07-06T01:02:25;6.70;;;6.10;;
20931;SDS011;10625;49.054;9.348;2022-07-06T01:04:52;7.20;;;6.50;;
20931;SDS011;10625;49.054;9.348;2022-07-06T01:07:20;7.83;;;6.63;;
20931;SDS011;10625;49.054;9.348;2022-07-06T01:09:47;9.43;;;6.10;;
20931;SDS011;10625;49.054;9.348;2022-07-06T01:12:14;6.93;;;6.33;;
20931;SDS011;10625;49.054;9.348;2022-07-06T01:14:42;7.07;;;6.37;;
20931;SDS011;10625;49.054;9.348;2022-07-06T01:17:09;6.20;;;5.70;;
20931;SDS011;10625;49.054;9.348;2022-07-06T01:19:37;7.30;;;6.60;;
20931;SDS011;10625;49.054;9.348;2022-07-06T01:22:04;11.33;;;6.53;;
20931;SDS011;10625;49.054;9.348;2022-07-06T01:24:31;7.87;;;6.33;;
20931;SDS011;10625;49.054;9.348;2022-07-06T01:26:58;7.73;;;6.97;;
20931;SDS011;10625;49.054;9.348;2022-07-06T01:29:26;7.60;;;6.90;;
20931;SDS011;10625;49.054;9.348;2022-07-06T01:31:53;8.07;;;6.73;;
20931;SDS011;10625;49.054;9.348;2022-07-06T01:34:21;7.67;;;6.97;;
20931;SDS011;10625;49.054;9.348;2022-07-06T01:36:49;7.00;;;6.30;;
20931;SDS011;10625;49.054;9.348;2022-07-06T01:39:16;7.23;;;6.53;;
20931;SDS011;10625;49.054;9.348;2022-07-06T01:41:43;7.80;;;7.10;;
20931;SDS011;10625;49.054;9.348;2022-07-06T01:44:11;7.57;;;6.67;;
20931;SDS011;10625;49.054;9.348;2022-07-06T01:46:38;7.70;;;6.90;;
20931;SDS011;10625;49.054;9.348;2022-07-06T01:49:05;8.63;;;7.80;;
20931;SDS011;10625;49.054;9.348;2022-07-06T01:51:33;8.47;;;7.60;;
20931;SDS011;10625;49.054;9.348;2022-07-06T01:54:00;9.90;;;7.57;;
20931;SDS011;10625;49.054;9.348;2022-07-06T01:56:27;8.10;;;7.30;;
20931;SDS011;10625;49.054;9.348;2022-07-06T01:58:54;9.10;;;7.33;;
20931;SDS011;10625;49.054;9.348;2022-07-06T02:01:23;8.07;;;7.27;;
20931;SDS011;10625;49.054;9.348;2022-07-06T02:03:50;8.70;;;7.77;;
20931;SDS011;10625;49.054;9.348;2022-07-06T02:06:17;9.53;;;7.70;;
20931;SDS011;10625;49.054;9.348;2022-07-06T02:08:45;9.60;;;8.27;;
20931;SDS011;10625;49.054;9.348;2022-07-06T02:11:12;8.10;;;7.30;;
20931;SDS011;10625;49.054;9.348;2022-07-06T02:13:39;8.97;;;8.07;;
20931;SDS011;10625;49.054;9.348;2022-07-06T02:16:06;8.60;;;7.30;;
20931;SDS011;10625;49.054;9.348;2022-07-06T02:18:34;7.50;;;6.80;;
20931;SDS011;10625;49.054;9.348;2022-07-06T02:21:02;7.23;;;6.53;;
20931;SDS011;10625;49.054;9.348;2022-07-06T02:23:29;13.73;;;7.27;;
20931;SDS011;10625;49.054;9.348;2022-07-06T02:25:56;8.17;;;7.30;;
20931;SDS011;10625;49.054;9.348;2022-07-06T02:28:23;7.17;;;6.50;;
20931;SDS011;10625;49.054;9.348;2022-07-06T02:30:51;8.53;;;7.73;;
20931;SDS011;10625;49.054;9.348;2022-07-06T02:33:18;9.57;;;7.00;;
20931;SDS011;10625;49.054;9.348;2022-07-06T02:35:45;8.83;;;6.90;;
20931;SDS011;10625;49.054;9.348;2022-07-06T02:38:13;7.53;;;6.83;;
20931;SDS011;10625;49.054;9.348;2022-07-06T02:40:40;8.13;;;6.93;;
20931;SDS011;10625;49.054;9.348;2022-07-06T02:43:07;9.00;;;7.23;;
20931;SDS011;10625;49.054;9.348;2022-07-06T02:45:35;11.93;;;7.93;;
20931;SDS011;10625;49.054;9.348;2022-07-06T02:48:02;11.17;;;7.90;;
20931;SDS011;10625;49.054;9.348;2022-07-06T02:50:29;9.37;;;7.70;;
20931;SDS011;10625;49.054;9.348;2022-07-06T02:52:57;7.93;;;7.23;;
20931;SDS011;10625;49.054;9.348;2022-07-06T02:55:28;8.37;;;7.57;;
20931;SDS011;10625;49.054;9.348;2022-07-06T02:57:55;9.20;;;7.70;;
20931;SDS011;10625;49.054;9.348;2022-07-06T03:00:22;9.70;;;8.70;;
20931;SDS011;10625;49.054;9.348;2022-07-06T03:02:49;8.87;;;8.07;;
20931;SDS011;10625;49.054;9.348;2022-07-06T03:05:17;9.97;;;8.83;;
20931;SDS011;10625;49.054;9.348;2022-07-06T03:07:44;10.20;;;9.20;;
20931;SDS011;10625;49.054;9.348;2022-07-06T03:10:11;9.23;;;8.43;;
20931;SDS011;10625;49.054;9.348;2022-07-06T03:12:38;9.43;;;8.13;;
20931;SDS011;10625;49.054;9.348;2022-07-06T03:15:06;9.57;;;8.20;;
20931;SDS011;10625;49.054;9.348;2022-07-06T03:17:35;10.67;;;9.10;;
20931;SDS011;10625;49.054;9.348;2022-07-06T03:20:03;9.07;;;8.17;;
20931;SDS011;10625;49.054;9.348;2022-07-06T03:22:31;10.27;;;8.80;;
20931;SDS011;10625;49.054;9.348;2022-07-06T03:24:59;9.60;;;8.60;;
20931;SDS011;10625;49.054;9.348;2022-07-06T03:27:26;9.00;;;8.13;;
20931;SDS011;10625;49.054;9.348;2022-07-06T03:29:53;11.30;;;8.70;;
20931;SDS011;10625;49.054;9.348;2022-07-06T03:32:20;9.67;;;8.40;;
20931;SDS011;10625;49.054;9.348;2022-07-06T03:34:48;10.00;;;9.00;;
20931;SDS011;10625;49.054;9.348;2022-07-06T03:37:15;11.00;;;9.37;;
20931;SDS011;10625;49.054;9.348;2022-07-06T03:39:42;11.00;;;9.00;;
20931;SDS011;10625;49.054;9.348;2022-07-06T03:42:09;12.90;;;9.47;;
20931;SDS011;10625;49.054;9.348;2022-07-06T03:44:37;10.27;;;8.53;;
20931;SDS011;10625;49.054;9.348;2022-07-06T03:47:04;10.47;;;8.90;;
20931;SDS011;10625;49.054;9.348;2022-07-06T03:49:31;9.13;;;8.07;;
20931;SDS011;10625;49.054;9.348;2022-07-06T03:51:58;9.57;;;8.67;;
20931;SDS011;10625;49.054;9.348;2022-07-06T03:54:26;10.83;;;9.27;;
20931;SDS011;10625;49.054;9.348;2022-07-06T03:56:53;10.07;;;8.90;;
20931;SDS011;10625;49.054;9.348;2022-07-06T03:59:20;10.63;;;9.13;;
20931;SDS011;10625;49.054;9.348;2022-07-06T04:01:47;10.33;;;9.13;;
20931;SDS011;10625;49.054;9.348;2022-07-06T04:04:15;10.63;;;9.57;;
20931;SDS011;10625;49.054;9.348;2022-07-06T04:06:42;9.47;;;8.57;;
20931;SDS011;10625;49.054;9.348;2022-07-06T04:09:09;9.70;;;8.67;;
20931;SDS011;10625;49.054;9.348;2022-07-06T04:11:37;10.27;;;9.27;;
20931;SDS011;10625;49.054;9.348;2022-07-06T04:14:04;11.33;;;9.90;;
20931;SDS011;10625;49.054;9.348;2022-07-06T04:16:31;10.00;;;9.00;;
20931;SDS011;10625;49.054;9.348;2022-07-06T04:18:58;10.33;;;9.00;;
20931;SDS011;10625;49.054;9.348;2022-07-06T04:21:26;9.93;;;8.40;;
20931;SDS011;10625;49.054;9.348;2022-07-06T04:23:53;9.80;;;8.90;;
20931;SDS011;10625;49.054;9.348;2022-07-06T04:26:20;11.93;;;8.67;;
20931;SDS011;10625;49.054;9.348;2022-07-06T04:28:47;9.50;;;8.23;;
20931;SDS011;10625;49.054;9.348;2022-07-06T04:31:15;10.30;;;8.13;;
20931;SDS011;10625;49.054;9.348;2022-07-06T04:33:42;8.43;;;7.10;;
20931;SDS011;10625;49.054;9.348;2022-07-06T04:36:10;8.93;;;7.87;;
20931;SDS011;10625;49.054;9.348;2022-07-06T04:38:37;8.73;;;7.43;;
20931;SDS011;10625;49.054;9.348;2022-07-06T04:41:04;8.47;;;7.27;;
20931;SDS011;10625;49.054;9.348;2022-07-06T04:43:32;10.93;;;8.10;;
20931;SDS011;10625;49.054;9.348;2022-07-06T04:45:59;8.43;;;7.63;;
20931;SDS011;10625;49.054;9.348;2022-07-06T04:48:27;8.23;;;6.73;;
20931;SDS011;10625;49.054;9.348;2022-07-06T04:50:54;8.63;;;7.67;;
20931;SDS011;10625;49.054;9.348;2022-07-06T04:53:22;8.63;;;7.73;;
20931;SDS011;10625;49.054;9.348;2022-07-06T04:55:49;8.20;;;7.40;;
20931;SDS011;10625;49.054;9.348;2022-07-06T04:58:16;9.43;;;7.60;;
20931;SDS011;10625;49.054;9.348;2022-07-06T05:00:43;8.33;;;5.90;;
20931;SDS011;10625;49.054;9.348;2022-07-06T05:03:11;10.30;;;6.83;;
20931;SDS011;10625;49.054;9.348;2022-07-06T05:05:38;6.63;;;5.97;;
20931;SDS011;10625;49.054;9.348;2022-07-06T05:08:05;6.23;;;5.73;;
20931;SDS011;10625;49.054;9.348;2022-07-06T05:10:32;6.47;;;5.10;;
20931;SDS011;10625;49.054;9.348;2022-07-06T05:13:00;5.47;;;5.03;;
20931;SDS011;10625;49.054;9.348;2022-07-06T05:15:27;6.13;;;5.53;;
20931;SDS011;10625;49.054;9.348;2022-07-06T05:17:54;6.20;;;5.10;;
20931;SDS011;10625;49.054;9.348;2022-07-06T05:20:21;5.70;;;5.20;;
20931;SDS011;10625;49.054;9.348;2022-07-06T05:22:49;5.57;;;4.97;;
20931;SDS011;10625;49.054;9.348;2022-07-06T05:25:16;5.47;;;4.90;;
20931;SDS011;10625;49.054;9.348;2022-07-06T05:27:43;4.80;;;4.30;;
20931;SDS011;10625;49.054;9.348;2022-07-06T05:30:10;4.97;;;4.57;;
20931;SDS011;10625;49.054;9.348;2022-07-06T05:32:38;4.60;;;4.20;;
20931;SDS011;10625;49.054;9.348;2022-07-06T05:35:05;4.67;;;4.20;;
20931;SDS011;10625;49.054;9.348;2022-07-06T05:37:33;4.60;;;4.20;;
20931;SDS011;10625;49.054;9.348;2022-07-06T05:40:00;4.87;;;4.47;;
20931;SDS011;10625;49.054;9.348;2022-07-06T05:42:27;4.87;;;4.00;;
20931;SDS011;10625;49.054;9.348;2022-07-06T05:44:55;4.53;;;4.00;;
20931;SDS011;10625;49.054;9.348;2022-07-06T05:47:22;4.00;;;3.70;;
20931;SDS011;10625;49.054;9.348;2022-07-06T05:50:08;4.17;;;3.77;;
20931;SDS011;10625;49.054;9.348;2022-07-06T05:52:39;5.77;;;4.00;;
20931;SDS011;10625;49.054;9.348;2022-07-06T05:55:07;4.10;;;3.80;;
20931;SDS011;10625;49.054;9.348;2022-07-06T05:57:34;7.20;;;4.13;;
20931;SDS011;10625;49.054;9.348;2022-07-06T06:00:02;5.13;;;4.00;;
20931;SDS011;10625;49.054;9.348;2022-07-06T06:02:36;4.33;;;3.53;;
20931;SDS011;10625;49.054;9.348;2022-07-06T06:05:04;4.60;;;3.70;;
20931;SDS011;10625;49.054;9.348;2022-07-06T06:07:32;4.57;;;4.17;;
20931;SDS011;10625;49.054;9.348;2022-07-06T06:10:01;5.03;;;4.07;;
20931;SDS011;10625;49.054;9.348;2022-07-06T06:12:28;5.07;;;4.57;;
20931;SDS011;10625;49.054;9.348;2022-07-06T06:14:55;4.07;;;3.47;;
20931;SDS011;10625;49.054;9.348;2022-07-06T06:17:22;6.90;;;3.73;;
20931;SDS011;10625;49.054;9.348;2022-07-06T06:19:50;3.90;;;3.50;;
20931;SDS011;10625;49.054;9.348;2022-07-06T06:22:17;4.13;;;3.50;;
20931;SDS011;10625;49.054;9.348;2022-07-06T06:24:44;4.00;;;3.60;;
20931;SDS011;10625;49.054;9.348;2022-07-06T06:27:12;4.50;;;3.30;;
20931;SDS011;10625;49.054;9.348;2022-07-06T06:29:39;4.93;;;3.50;;
20931;SDS011;10625;49.054;9.348;2022-07-06T06:32:08;3.63;;;3.27;;
20931;SDS011;10625;49.054;9.348;2022-07-06T06:34:35;3.83;;;3.10;;
20931;SDS011;10625;49.054;9.348;2022-07-06T06:37:02;4.30;;;3.57;;
20931;SDS011;10625;49.054;9.348;2022-07-06T06:39:30;4.00;;;3.30;;
20931;SDS011;10625;49.054;9.348;2022-07-06T06:41:57;4.40;;;3.23;;
20931;SDS011;10625;49.054;9.348;2022-07-06T06:44:24;5.33;;;3.80;;
20931;SDS011;10625;49.054;9.348;2022-07-06T06:46:51;5.60;;;3.43;;
20931;SDS011;10625;49.054;9.348;2022-07-06T06:49:19;4.00;;;3.00;;
20931;SDS011;10625;49.054;9.348;2022-07-06T06:51:46;3.40;;;3.10;;
20931;SDS011;10625;49.054;9.348;2022-07-06T06:54:13;3.60;;;2.80;;
20931;SDS011;10625;49.054;9.348;2022-07-06T06:56:40;3.30;;;2.90;;
20931;SDS011;10625;49.054;9.348;2022-07-06T06:59:10;3.83;;;2.97;;
20931;SDS011;10625;49.054;9.348;2022-07-06T07:01:36;4.43;;;2.73;;
20931;SDS011;10625;49.054;9.348;2022-07-06T07:04:04;6.63;;;2.77;;
20931;SDS011;10625;49.054;9.348;2022-07-06T07:06:32;4.87;;;2.77;;
20931;SDS011;10625;49.054;9.348;2022-07-06T07:08:59;3.33;;;2.60;;
20931;SDS011;10625;49.054;9.348;2022-07-06T07:11:26;60.17;;;36.33;;
20931;SDS011;10625;49.054;9.348;2022-07-06T07:13:54;16.23;;;11.13;;
20931;SDS011;10625;49.054;9.348;2022-07-06T07:16:21;7.37;;;3.43;;
20931;SDS011;10625;49.054;9.348;2022-07-06T07:18:50;3.53;;;2.40;;
20931;SDS011;10625;49.054;9.348;2022-07-06T07:21:18;5.50;;;2.50;;
20931;SDS011;10625;49.054;9.348;2022-07-06T07:23:45;2.27;;;2.07;;
20931;SDS011;10625;49.054;9.348;2022-07-06T07:26:13;2.40;;;2.20;;
20931;SDS011;10625;49.054;9.348;2022-07-06T07:28:40;3.17;;;2.37;;
20931;SDS011;10625;49.054;9.348;2022-07-06T07:31:07;4.13;;;2.20;;
20931;SDS011;10625;49.054;9.348;2022-07-06T07:33:34;2.73;;;2.27;;
20931;SDS011;10625;49.054;9.348;2022-07-06T07:36:02;3.20;;;2.20;;
20931;SDS011;10625;49.054;9.348;2022-07-06T07:38:29;5.40;;;2.50;;
20931;SDS011;10625;49.054;9.348;2022-07-06T07:40:56;2.60;;;2.40;;
20931;SDS011;10625;49.054;9.348;2022-07-06T07:43:24;3.83;;;2.50;;
20931;SDS011;10625;49.054;9.348;2022-07-06T07:45:51;2.50;;;1.93;;
20931;SDS011;10625;49.054;9.348;2022-07-06T07:48:18;2.80;;;2.33;;
20931;SDS011;10625;49.054;9.348;2022-07-06T07:50:46;4.70;;;2.60;;
20931;SDS011;10625;49.054;9.348;2022-07-06T07:53:13;5.20;;;3.00;;
20931;SDS011;10625;49.054;9.348;2022-07-06T07:55:40;3.70;;;2.83;;
20931;SDS011;10625;49.054;9.348;2022-07-06T07:58:08;2.63;;;2.43;;
20931;SDS011;10625;49.054;9.348;2022-07-06T08:00:35;3.63;;;2.47;;
20931;SDS011;10625;49.054;9.348;2022-07-06T08:03:03;3.93;;;2.47;;
20931;SDS011;10625;49.054;9.348;2022-07-06T08:05:30;3.83;;;2.60;;
20931;SDS011;10625;49.054;9.348;2022-07-06T08:07:57;3.53;;;2.40;;
20931;SDS011;10625;49.054;9.348;2022-07-06T08:10:25;3.97;;;2.40;;
20931;SDS011;10625;49.054;9.348;2022-07-06T08:12:52;4.07;;;2.60;;
20931;SDS011;10625;49.054;9.348;2022-07-06T08:15:19;3.00;;;2.30;;
20931;SDS011;10625;49.054;9.348;2022-07-06T08:17:47;3.10;;;2.60;;
20931;SDS011;10625;49.054;9.348;2022-07-06T08:20:14;4.03;;;2.87;;
20931;SDS011;10625;49.054;9.348;2022-07-06T08:22:42;5.43;;;3.00;;
20931;SDS011;10625;49.054;9.348;2022-07-06T08:25:09;6.13;;;3.10;;
20931;SDS011;10625;49.054;9.348;2022-07-06T08:27:37;3.33;;;2.80;;
20931;SDS011;10625;49.054;9.348;2022-07-06T08:30:04;3.63;;;2.57;;
20931;SDS011;10625;49.054;9.348;2022-07-06T08:32:31;3.03;;;2.47;;
20931;SDS011;10625;49.054;9.348;2022-07-06T08:34:58;6.87;;;2.70;;
20931;SDS011;10625;49.054;9.348;2022-07-06T08:37:26;6.03;;;3.33;;
20931;SDS011;10625;49.054;9.348;2022-07-06T08:39:53;6.57;;;5.03;;
20931;SDS011;10625;49.054;9.348;2022-07-06T08:42:20;5.37;;;2.87;;
20931;SDS011;10625;49.054;9.348;2022-07-06T08:44:49;5.53;;;3.47;;
20931;SDS011;10625;49.054;9.348;2022-07-06T08:47:17;5.80;;;3.00;;
20931;SDS011;10625;49.054;9.348;2022-07-06T08:49:45;5.67;;;3.03;;
20931;SDS011;10625;49.054;9.348;2022-07-06T08:52:14;3.50;;;2.93;;
20931;SDS011;10625;49.054;9.348;2022-07-06T08:54:42;3.67;;;2.90;;
20931;SDS011;10625;49.054;9.348;2022-07-06T08:57:10;3.20;;;2.90;;
20931;SDS011;10625;49.054;9.348;2022-07-06T08:59:38;3.80;;;2.77;;
20931;SDS011;10625;49.054;9.348;2022-07-06T09:02:05;5.07;;;3.03;;
20931;SDS011;10625;49.054;9.348;2022-07-06T09:04:33;7.07;;;2.53;;
20931;SDS011;10625;49.054;9.348;2022-07-06T09:07:02;6.17;;;3.30;;
20931;SDS011;10625;49.054;9.348;2022-07-06T09:09:30;5.10;;;3.17;;
20931;SDS011;10625;49.054;9.348;2022-07-06T09:11:57;6.40;;;3.43;;
20931;SDS011;10625;49.054;9.348;2022-07-06T09:14:24;4.93;;;3.20;;
20931;SDS011;10625;49.054;9.348;2022-07-06T09:16:52;3.33;;;3.03;;
20931;SDS011;10625;49.054;9.348;2022-07-06T09:19:21;5.17;;;3.33;;
20931;SDS011;10625;49.054;9.348;2022-07-06T09:21:48;3.10;;;2.80;;
20931;SDS011;10625;49.054;9.348;2022-07-06T09:24:15;4.43;;;3.33;;
20931;SDS011;10625;49.054;9.348;2022-07-06T09:26:42;4.47;;;2.90;;
20931;SDS011;10625;49.054;9.348;2022-07-06T09:29:10;3.03;;;2.70;;
20931;SDS011;10625;49.054;9.348;2022-07-06T09:31:37;4.10;;;3.20;;
20931;SDS011;10625;49.054;9.348;2022-07-06T09:34:07;2.70;;;2.40;;
20931;SDS011;10625;49.054;9.348;2022-07-06T09:36:40;3.27;;;2.97;;
20931;SDS011;10625;49.054;9.348;2022-07-06T09:41:53;4.20;;;3.10;;
20931;SDS011;10625;49.054;9.348;2022-07-06T09:44:21;3.13;;;2.77;;
20931;SDS011;10625;49.054;9.348;2022-07-06T09:46:50;3.33;;;2.67;;
20931;SDS011;10625;49.054;9.348;2022-07-06T09:49:18;3.70;;;2.60;;
20931;SDS011;10625;49.054;9.348;2022-07-06T09:51:47;5.37;;;3.73;;
20931;SDS011;10625;49.054;9.348;2022-07-06T09:54:15;5.63;;;2.90;;
20931;SDS011;10625;49.054;9.348;2022-07-06T09:56:43;3.30;;;3.00;;
20931;SDS011;10625;49.054;9.348;2022-07-06T09:59:13;6.30;;;3.00;;
20931;SDS011;10625;49.054;9.348;2022-07-06T10:01:41;3.67;;;2.63;;
20931;SDS011;10625;49.054;9.348;2022-07-06T10:04:09;3.10;;;2.30;;
20931;SDS011;10625;49.054;9.348;2022-07-06T10:06:39;4.30;;;2.63;;
20931;SDS011;10625;49.054;9.348;2022-07-06T10:09:07;5.63;;;2.47;;
20931;SDS011;10625;49.054;9.348;2022-07-06T10:11:37;3.73;;;2.37;;
20931;SDS011;10625;49.054;9.348;2022-07-06T10:14:05;4.40;;;2.83;;
20931;SDS011;10625;49.054;9.348;2022-07-06T10:16:33;2.60;;;2.40;;
20931;SDS011;10625;49.054;9.348;2022-07-06T10:19:01;7.20;;;3.00;;
20931;SDS011;10625;49.054;9.348;2022-07-06T10:21:30;5.27;;;2.87;;
20931;SDS011;10625;49.054;9.348;2022-07-06T10:23:57;5.57;;;2.87;;
20931;SDS011;10625;49.054;9.348;2022-07-06T10:26:26;5.00;;;2.97;;
20931;SDS011;10625;49.054;9.348;2022-07-06T10:28:53;4.53;;;2.83;;
20931;SDS011;10625;49.054;9.348;2022-07-06T10:31:21;3.87;;;3.13;;
20931;SDS011;10625;49.054;9.348;2022-07-06T10:33:50;4.40;;;2.77;;
20931;SDS011;10625;49.054;9.348;2022-07-06T10:36:17;3.60;;;2.97;;
20931;SDS011;10625;49.054;9.348;2022-07-06T10:38:54;3.73;;;2.87;;
20931;SDS011;10625;49.054;9.348;2022-07-06T10:41:14;6.13;;;3.20;;
20931;SDS011;10625;49.054;9.348;2022-07-06T10:43:42;5.37;;;2.90;;
20931;SDS011;10625;49.054;9.348;2022-07-06T10:46:13;6.13;;;3.73;;
20931;SDS011;10625;49.054;9.348;2022-07-06T10:48:40;4.83;;;3.23;;
20931;SDS011;10625;49.054;9.348;2022-07-06T10:51:09;3.53;;;2.80;;
20931;SDS011;10625;49.054;9.348;2022-07-06T10:53:38;4.23;;;2.77;;
20931;SDS011;10625;49.054;9.348;2022-07-06T10:56:06;6.50;;;2.97;;
20931;SDS011;10625;49.054;9.348;2022-07-06T10:58:34;3.27;;;2.60;;
20931;SDS011;10625;49.054;9.348;2022-07-06T11:01:02;9.27;;;3.00;;
20931;SDS011;10625;49.054;9.348;2022-07-06T11:03:40;5.13;;;3.40;;
20931;SDS011;10625;49.054;9.348;2022-07-06T11:05:59;5.40;;;2.90;;
20931;SDS011;10625;49.054;9.348;2022-07-06T11:11:25;4.93;;;2.73;;
20931;SDS011;10625;49.054;9.348;2022-07-06T11:13:56;8.50;;;3.70;;
20931;SDS011;10625;49.054;9.348;2022-07-06T11:16:29;7.33;;;2.80;;
20931;SDS011;10625;49.054;9.348;2022-07-06T11:19:04;6.37;;;2.63;;
20931;SDS011;10625;49.054;9.348;2022-07-06T11:21:32;4.33;;;2.93;;
20931;SDS011;10625;49.054;9.348;2022-07-06T11:23:59;5.73;;;2.60;;
20931;SDS011;10625;49.054;9.348;2022-07-06T11:26:27;3.00;;;2.70;;
20931;SDS011;10625;49.054;9.348;2022-07-06T11:28:54;4.40;;;2.80;;
20931;SDS011;10625;49.054;9.348;2022-07-06T11:31:22;6.47;;;3.30;;
20931;SDS011;10625;49.054;9.348;2022-07-06T11:33:49;3.67;;;2.37;;
20931;SDS011;10625;49.054;9.348;2022-07-06T11:36:20;4.73;;;2.73;;
20931;SDS011;10625;49.054;9.348;2022-07-06T11:38:48;2.33;;;2.13;;
20931;SDS011;10625;49.054;9.348;2022-07-06T11:41:16;4.13;;;2.47;;
20931;SDS011;10625;49.054;9.348;2022-07-06T11:43:44;3.80;;;2.57;;
20931;SDS011;10625;49.054;9.348;2022-07-06T11:46:22;4.83;;;2.67;;
20931;SDS011;10625;49.054;9.348;2022-07-06T11:48:47;5.13;;;2.93;;
20931;SDS011;10625;49.054;9.348;2022-07-06T11:51:15;6.67;;;2.87;;
20931;SDS011;10625;49.054;9.348;2022-07-06T11:53:43;2.47;;;2.27;;
20931;SDS011;10625;49.054;9.348;2022-07-06T11:56:10;4.00;;;2.43;;
20931;SDS011;10625;49.054;9.348;2022-07-06T11:58:38;3.37;;;2.60;;
20931;SDS011;10625;49.054;9.348;2022-07-06T12:01:13;6.13;;;2.43;;
20931;SDS011;10625;49.054;9.348;2022-07-06T12:03:37;4.50;;;2.47;;
20931;SDS011;10625;49.054;9.348;2022-07-06T12:06:05;5.97;;;2.50;;
20931;SDS011;10625;49.054;9.348;2022-07-06T12:08:40;4.63;;;3.27;;
20931;SDS011;10625;49.054;9.348;2022-07-06T12:11:02;3.83;;;2.60;;
20931;SDS011;10625;49.054;9.348;2022-07-06T12:13:29;4.13;;;2.90;;
20931;SDS011;10625;49.054;9.348;2022-07-06T12:16:08;4.03;;;2.50;;
20931;SDS011;10625;49.054;9.348;2022-07-06T12:18:35;6.63;;;2.80;;
20931;SDS011;10625;49.054;9.348;2022-07-06T12:20:56;5.33;;;2.90;;
20931;SDS011;10625;49.054;9.348;2022-07-06T12:23:23;5.73;;;2.97;;
20931;SDS011;10625;49.054;9.348;2022-07-06T12:25:51;5.37;;;3.00;;
20931;SDS011;10625;49.054;9.348;2022-07-06T12:28:22;3.93;;;2.70;;
20931;SDS011;10625;49.054;9.348;2022-07-06T12:30:50;5.57;;;3.10;;
20931;SDS011;10625;49.054;9.348;2022-07-06T12:36:07;6.63;;;3.13;;
20931;SDS011;10625;49.054;9.348;2022-07-06T12:38:26;4.43;;;2.60;;
20931;SDS011;10625;49.054;9.348;2022-07-06T12:40:55;3.63;;;3.00;;
20931;SDS011;10625;49.054;9.348;2022-07-06T12:43:35;4.37;;;2.83;;
20931;SDS011;10625;49.054;9.348;2022-07-06T12:48:56;3.20;;;2.90;;
20931;SDS011;10625;49.054;9.348;2022-07-06T12:51:20;10.50;;;3.70;;
20931;SDS011;10625;49.054;9.348;2022-07-06T12:53:48;4.90;;;3.27;;
20931;SDS011;10625;49.054;9.348;2022-07-06T12:56:15;5.80;;;3.13;;
20931;SDS011;10625;49.054;9.348;2022-07-06T12:59:21;6.57;;;2.80;;
20931;SDS011;10625;49.054;9.348;2022-07-06T13:01:18;5.73;;;2.90;;
20931;SDS011;10625;49.054;9.348;2022-07-06T13:03:45;6.73;;;2.97;;
20931;SDS011;10625;49.054;9.348;2022-07-06T13:06:12;4.83;;;2.50;;
20931;SDS011;10625;49.054;9.348;2022-07-06T13:08:40;5.10;;;2.70;;
20931;SDS011;10625;49.054;9.348;2022-07-06T13:11:07;4.33;;;2.87;;
20931;SDS011;10625;49.054;9.348;2022-07-06T13:13:42;7.07;;;4.63;;
20931;SDS011;10625;49.054;9.348;2022-07-06T13:16:03;5.13;;;3.83;;
20931;SDS011;10625;49.054;9.348;2022-07-06T13:18:30;4.17;;;2.63;;
20931;SDS011;10625;49.054;9.348;2022-07-06T13:20:58;4.93;;;2.43;;
20931;SDS011;10625;49.054;9.348;2022-07-06T13:23:25;3.63;;;2.50;;
20931;SDS011;10625;49.054;9.348;2022-07-06T13:25:52;5.23;;;2.57;;
20931;SDS011;10625;49.054;9.348;2022-07-06T13:28:20;4.07;;;2.60;;
20931;SDS011;10625;49.054;9.348;2022-07-06T13:30:47;5.60;;;3.03;;
20931;SDS011;10625;49.054;9.348;2022-07-06T13:33:15;5.33;;;3.10;;
20931;SDS011;10625;49.054;9.348;2022-07-06T13:35:42;2.83;;;2.33;;
20931;SDS011;10625;49.054;9.348;2022-07-06T13:38:09;3.17;;;2.57;;
20931;SDS011;10625;49.054;9.348;2022-07-06T13:40:37;5.17;;;2.30;;
20931;SDS011;10625;49.054;9.348;2022-07-06T13:43:04;4.77;;;2.43;;
20931;SDS011;10625;49.054;9.348;2022-07-06T13:45:31;3.90;;;2.20;;
20931;SDS011;10625;49.054;9.348;2022-07-06T13:47:59;3.77;;;2.03;;
20931;SDS011;10625;49.054;9.348;2022-07-06T13:50:26;4.20;;;2.07;;
20931;SDS011;10625;49.054;9.348;2022-07-06T13:52:55;4.93;;;2.03;;
20931;SDS011;10625;49.054;9.348;2022-07-06T13:55:22;5.33;;;2.23;;
20931;SDS011;10625;49.054;9.348;2022-07-06T13:57:49;3.47;;;1.87;;
20931;SDS011;10625;49.054;9.348;2022-07-06T14:00:17;3.17;;;2.10;;
20931;SDS011;10625;49.054;9.348;2022-07-06T14:02:44;2.70;;;1.93;;
20931;SDS011;10625;49.054;9.348;2022-07-06T14:05:11;3.63;;;1.80;;
20931;SDS011;10625;49.054;9.348;2022-07-06T14:07:39;4.30;;;2.30;;
20931;SDS011;10625;49.054;9.348;2022-07-06T14:10:06;3.20;;;2.03;;
20931;SDS011;10625;49.054;9.348;2022-07-06T14:12:34;5.63;;;2.10;;
20931;SDS011;10625;49.054;9.348;2022-07-06T14:15:02;3.27;;;1.87;;
20931;SDS011;10625;49.054;9.348;2022-07-06T14:17:29;3.20;;;1.80;;
20931;SDS011;10625;49.054;9.348;2022-07-06T14:19:56;5.00;;;2.10;;
20931;SDS011;10625;49.054;9.348;2022-07-06T14:22:23;3.57;;;1.93;;
20931;SDS011;10625;49.054;9.348;2022-07-06T14:24:51;3.13;;;2.00;;
20931;SDS011;10625;49.054;9.348;2022-07-06T14:27:18;1.70;;;1.60;;
20931;SDS011;10625;49.054;9.348;2022-07-06T14:29:45;3.00;;;1.77;;
20931;SDS011;10625;49.054;9.348;2022-07-06T14:32:13;2.47;;;1.70;;
20931;SDS011;10625;49.054;9.348;2022-07-06T14:34:40;5.63;;;1.80;;
20931;SDS011;10625;49.054;9.348;2022-07-06T14:37:07;4.07;;;1.70;;
20931;SDS011;10625;49.054;9.348;2022-07-06T14:39:35;3.57;;;1.70;;
20931;SDS011;10625;49.054;9.348;2022-07-06T14:42:02;3.57;;;1.77;;
20931;SDS011;10625;49.054;9.348;2022-07-06T14:44:29;2.80;;;1.90;;
20931;SDS011;10625;49.054;9.348;2022-07-06T14:46:56;4.70;;;1.70;;
20931;SDS011;10625;49.054;9.348;2022-07-06T14:49:24;2.80;;;1.70;;
20931;SDS011;10625;49.054;9.348;2022-07-06T14:51:51;2.73;;;1.83;;
20931;SDS011;10625;49.054;9.348;2022-07-06T14:54:18;4.03;;;1.80;;
20931;SDS011;10625;49.054;9.348;2022-07-06T14:56:45;2.17;;;1.70;;
20931;SDS011;10625;49.054;9.348;2022-07-06T14:59:13;3.50;;;1.70;;